createdAt,value
2024-04-05T00:00:35.068Z,75.42
2024-04-05T00:01:35.052Z,75.23
2024-04-05T00:02:35.058Z,75.89
2024-04-05T00:03:35.065Z,75.79
2024-04-05T00:04:35.096Z,76.27
2024-04-05T00:05:35.082Z,76.08
2024-04-05T00:06:35.087Z,76.18
2024-04-05T00:07:35.111Z,76.18
2024-04-05T00:08:35.107Z,76.37
2024-04-05T00:09:35.119Z,76.18
2024-04-05T00:10:35.137Z,76.08
2024-04-05T00:11:35.134Z,76.37
2024-04-05T00:12:38.885Z,76.08
2024-04-05T00:13:35.164Z,76.27
2024-04-05T00:14:35.163Z,76.37
2024-04-05T00:15:35.171Z,76.18
2024-04-05T00:16:35.213Z,76.37
2024-04-05T00:17:35.223Z,76.37
2024-04-05T00:18:35.197Z,76.18
2024-04-05T00:19:35.253Z,76.37
2024-04-05T00:20:35.216Z,76.37
2024-04-05T00:21:35.234Z,76.93
2024-04-05T00:22:35.247Z,76.65
2024-04-05T00:23:35.259Z,76.65
2024-04-05T00:24:35.252Z,76.65
2024-04-05T00:25:35.275Z,76.84
2024-04-05T00:26:35.265Z,76.75
2024-04-05T00:27:35.288Z,76.84
2024-04-05T00:28:35.290Z,76.93
2024-04-05T00:29:35.299Z,76.84
2024-04-05T00:30:35.312Z,76.46
2024-04-05T00:31:35.313Z,76.18
2024-04-05T00:32:35.325Z,76.27
2024-04-05T00:33:35.336Z,75.70
2024-04-05T00:34:35.362Z,75.42
2024-04-05T00:35:35.357Z,75.23
2024-04-05T00:36:35.377Z,74.66
2024-04-05T00:37:35.399Z,74.94
2024-04-05T00:38:35.390Z,75.42
2024-04-05T00:39:35.434Z,75.13
2024-04-05T00:40:35.439Z,74.66
2024-04-05T00:41:35.411Z,74.75
2024-04-05T00:42:35.428Z,74.37
2024-04-05T00:43:35.449Z,75.23
2024-04-05T00:44:35.447Z,74.75
2024-04-05T00:45:35.504Z,74.27
2024-04-05T00:46:35.530Z,73.61
2024-04-05T00:47:35.526Z,74.08
2024-04-05T00:48:35.475Z,74.56
2024-04-05T00:49:35.522Z,75.23
2024-04-05T00:50:35.554Z,75.32
2024-04-05T00:51:35.503Z,74.85
2024-04-05T00:52:35.578Z,74.75
2024-04-05T00:53:35.533Z,75.13
2024-04-05T00:54:35.553Z,75.23
2024-04-05T00:55:35.562Z,75.60
2024-04-05T00:56:35.546Z,75.23
2024-04-05T00:57:35.561Z,75.13
2024-04-05T00:58:35.601Z,75.32
2024-04-05T00:59:35.581Z,74.66
2024-04-05T01:00:35.653Z,75.04
2024-04-05T01:01:35.628Z,74.94
2024-04-05T01:02:35.611Z,75.32
2024-04-05T01:03:35.614Z,75.42
2024-04-05T01:04:35.680Z,75.70
2024-04-05T01:05:35.642Z,75.89
2024-04-05T01:06:35.639Z,76.27
2024-04-05T01:07:35.658Z,75.99
2024-04-05T01:08:35.660Z,76.18
2024-04-05T01:09:35.674Z,76.65
2024-04-05T01:10:35.698Z,77.31
2024-04-05T01:11:35.705Z,77.03
2024-04-05T01:12:35.697Z,77.22
2024-04-05T01:13:35.740Z,77.12
2024-04-05T01:14:35.715Z,77.31
2024-04-05T01:15:35.717Z,77.41
2024-04-05T01:16:35.771Z,77.51
2024-04-05T01:17:35.737Z,77.51
2024-04-05T01:18:35.778Z,77.31
2024-04-05T01:19:35.780Z,77.60
2024-04-05T01:20:35.769Z,77.41
2024-04-05T01:21:35.776Z,77.60
2024-04-05T01:22:35.826Z,77.79
2024-04-05T01:23:35.802Z,78.36
2024-04-05T01:24:35.800Z,78.36
2024-04-05T01:25:35.844Z,77.60
2024-04-05T01:26:35.827Z,77.51
2024-04-05T01:27:35.847Z,77.41
2024-04-05T01:28:35.844Z,77.41
2024-04-05T01:29:35.857Z,77.79
2024-04-05T01:30:35.882Z,77.79
2024-04-05T01:31:35.889Z,77.79
2024-04-05T01:32:35.879Z,78.27
2024-04-05T01:33:35.885Z,77.60
2024-04-05T01:34:35.900Z,78.17
2024-04-05T01:35:35.907Z,78.36
2024-04-05T01:36:35.909Z,77.60
2024-04-05T01:37:35.938Z,77.89
2024-04-05T01:38:35.929Z,77.70
2024-04-05T01:39:35.945Z,77.79
2024-04-05T01:40:35.997Z,77.51
2024-04-05T01:41:35.960Z,77.31
2024-04-05T01:42:35.965Z,77.41
2024-04-05T01:43:36.016Z,77.22
2024-04-05T01:44:35.983Z,76.84
2024-04-05T01:45:35.992Z,76.75
2024-04-05T01:46:36.038Z,76.84
2024-04-05T01:47:36.078Z,76.93
2024-04-05T01:48:36.017Z,76.65
2024-04-05T01:49:36.046Z,77.03
2024-04-05T01:50:36.039Z,76.93
2024-04-05T01:51:36.047Z,76.93
2024-04-05T01:52:36.124Z,76.84
2024-04-05T01:53:36.084Z,76.46
2024-04-05T01:54:36.090Z,75.99
2024-04-05T01:55:36.116Z,76.56
2024-04-05T01:56:36.107Z,76.08
2024-04-05T01:57:36.126Z,75.60
2024-04-05T01:58:36.110Z,75.32
2024-04-05T01:59:36.131Z,75.23
2024-04-05T02:00:36.160Z,75.89
2024-04-05T02:01:36.142Z,75.60
2024-04-05T02:02:36.147Z,75.70
2024-04-05T02:03:36.158Z,75.60
2024-04-05T02:04:36.162Z,75.23
2024-04-05T02:05:36.179Z,75.13
2024-04-05T02:06:36.184Z,75.04
2024-04-05T02:07:36.259Z,75.13
2024-04-05T02:08:36.202Z,75.32
2024-04-05T02:09:36.212Z,75.23
2024-04-05T02:10:36.270Z,75.13
2024-04-05T02:11:36.230Z,75.32
2024-04-05T02:12:36.243Z,75.32
2024-04-05T02:13:36.263Z,75.32
2024-04-05T02:14:36.269Z,75.23
2024-04-05T02:15:36.281Z,75.42
2024-04-05T02:16:36.283Z,75.04
2024-04-05T02:17:36.285Z,74.85
2024-04-05T02:18:36.300Z,74.56
2024-04-05T02:19:36.318Z,74.56
2024-04-05T02:20:36.309Z,74.08
2024-04-05T02:21:36.324Z,73.90
2024-04-05T02:22:36.347Z,74.08
2024-04-05T02:23:36.347Z,74.08
2024-04-05T02:24:36.361Z,74.08
2024-04-05T02:25:36.361Z,74.27
2024-04-05T02:26:36.366Z,74.47
2024-04-05T02:27:36.378Z,74.37
2024-04-05T02:28:36.403Z,74.27
2024-04-05T02:29:36.394Z,75.04
2024-04-05T02:30:36.401Z,74.75
2024-04-05T02:31:36.554Z,74.56
2024-04-05T02:32:36.429Z,74.56
2024-04-05T02:33:36.430Z,73.80
2024-04-05T02:34:36.459Z,74.56
2024-04-05T02:35:36.444Z,74.66
2024-04-05T02:36:36.459Z,74.56
2024-04-05T02:37:36.501Z,74.47
2024-04-05T02:38:36.481Z,74.37
2024-04-05T02:39:36.493Z,74.56
2024-04-05T02:40:36.543Z,74.56
2024-04-05T02:41:36.499Z,74.37
2024-04-05T02:42:36.509Z,74.27
2024-04-05T02:43:36.533Z,74.56
2024-04-05T02:44:36.528Z,74.56
2024-04-05T02:45:36.537Z,74.08
2024-04-05T02:46:36.575Z,74.08
2024-04-05T02:47:36.590Z,74.08
2024-04-05T02:48:36.566Z,73.61
2024-04-05T02:49:36.608Z,73.80
2024-04-05T02:50:36.578Z,74.08
2024-04-05T02:51:36.592Z,74.08
2024-04-05T02:52:36.650Z,74.08
2024-04-05T02:53:36.639Z,74.08
2024-04-05T02:54:36.620Z,73.80
2024-04-05T02:55:36.691Z,74.37
2024-04-05T02:56:36.639Z,74.37
2024-04-05T02:57:36.650Z,75.23
2024-04-05T02:58:36.650Z,75.23
2024-04-05T02:59:36.659Z,75.32
2024-04-05T03:00:36.674Z,74.75
2024-04-05T03:01:36.692Z,75.23
2024-04-05T03:02:36.688Z,75.04
2024-04-05T03:03:36.717Z,75.13
2024-04-05T03:04:36.702Z,75.70
2024-04-05T03:05:36.723Z,75.60
2024-04-05T03:06:36.717Z,75.70
2024-04-05T03:07:36.730Z,75.70
2024-04-05T03:08:36.737Z,75.70
2024-04-05T03:09:36.754Z,75.51
2024-04-05T03:10:36.756Z,75.42
2024-04-05T03:11:36.771Z,75.79
2024-04-05T03:12:36.805Z,76.08
2024-04-05T03:13:36.793Z,75.79
2024-04-05T03:14:36.804Z,76.08
2024-04-05T03:15:36.830Z,76.27
2024-04-05T03:16:36.812Z,76.18
2024-04-05T03:17:36.823Z,76.46
2024-04-05T03:18:36.839Z,76.90
2024-04-05T03:19:36.856Z,76.80
2024-04-05T03:20:36.950Z,76.80
2024-04-05T03:21:36.857Z,77.28
2024-04-05T03:22:36.863Z,77.28
2024-04-05T03:23:36.874Z,77.28
2024-04-05T03:24:36.887Z,77.28
2024-04-05T03:25:36.910Z,77.47
2024-04-05T03:26:36.900Z,77.75
2024-04-05T03:27:36.926Z,78.03
2024-04-05T03:28:36.919Z,77.75
2024-04-05T03:29:36.926Z,77.56
2024-04-05T03:30:36.963Z,78.13
2024-04-05T03:31:36.939Z,77.75
2024-04-05T03:32:36.986Z,78.13
2024-04-05T03:33:36.973Z,79.08
2024-04-05T03:34:36.970Z,78.42
2024-04-05T03:35:36.991Z,78.42
2024-04-05T03:36:37.004Z,78.61
2024-04-05T03:37:37.010Z,79.55
2024-04-05T03:38:37.034Z,78.61
2024-04-05T03:39:37.013Z,78.23
2024-04-05T03:40:37.031Z,78.23
2024-04-05T03:41:37.034Z,78.13
2024-04-05T03:42:37.049Z,78.42
2024-04-05T03:43:37.053Z,78.89
2024-04-05T03:44:37.054Z,79.08
2024-04-05T03:45:37.059Z,78.42
2024-04-05T03:46:37.076Z,78.61
2024-04-05T03:47:37.079Z,78.51
2024-04-05T03:48:37.090Z,79.08
2024-04-05T03:49:37.100Z,78.89
2024-04-05T03:50:37.118Z,78.89
2024-04-05T03:51:37.122Z,78.61
2024-04-05T03:52:37.128Z,78.51
2024-04-05T03:53:37.131Z,78.80
2024-04-05T03:54:37.145Z,78.03
2024-04-05T03:55:37.152Z,78.51
2024-04-05T03:56:37.167Z,78.80
2024-04-05T03:57:37.166Z,78.23
2024-04-05T03:58:37.193Z,78.42
2024-04-05T03:59:37.181Z,78.70
2024-04-05T04:00:37.199Z,78.61
2024-04-05T04:01:37.198Z,78.32
2024-04-05T04:02:37.211Z,78.80
2024-04-05T04:03:37.214Z,78.23
2024-04-05T04:04:37.226Z,78.23
2024-04-05T04:05:37.236Z,79.36
2024-04-05T04:06:37.247Z,79.17
2024-04-05T04:07:37.264Z,78.61
2024-04-05T04:08:37.259Z,78.42
2024-04-05T04:09:37.272Z,78.99
2024-04-05T04:10:37.281Z,78.42
2024-04-05T04:11:37.290Z,78.70
2024-04-05T04:12:37.305Z,78.13
2024-04-05T04:13:37.299Z,78.03
2024-04-05T04:14:37.307Z,78.32
2024-04-05T04:15:37.314Z,78.03
2024-04-05T04:16:37.346Z,78.13
2024-04-05T04:17:37.335Z,78.23
2024-04-05T04:18:37.358Z,78.51
2024-04-05T04:19:37.353Z,78.61
2024-04-05T04:20:37.410Z,78.80
2024-04-05T04:21:37.367Z,78.23
2024-04-05T04:22:37.375Z,78.89
2024-04-05T04:23:37.400Z,79.17
2024-04-05T04:24:37.401Z,79.65
2024-04-05T04:25:37.412Z,79.17
2024-04-05T04:26:37.410Z,78.89
2024-04-05T04:27:37.439Z,78.61
2024-04-05T04:28:37.424Z,78.32
2024-04-05T04:29:37.431Z,78.89
2024-04-05T04:30:37.443Z,78.42
2024-04-05T04:31:37.447Z,78.61
2024-04-05T04:32:37.506Z,77.37
2024-04-05T04:33:37.467Z,78.23
2024-04-05T04:34:37.478Z,78.23
2024-04-05T04:35:37.483Z,78.42
2024-04-05T04:36:37.491Z,78.03
2024-04-05T04:37:37.498Z,78.13
2024-04-05T04:38:37.510Z,78.23
2024-04-05T04:39:37.536Z,78.80
2024-04-05T04:40:37.525Z,78.99
2024-04-05T04:41:37.550Z,78.99
2024-04-05T04:42:37.546Z,78.51
2024-04-05T04:43:37.554Z,78.23
2024-04-05T04:44:37.558Z,78.51
2024-04-05T04:45:37.578Z,78.61
2024-04-05T04:46:37.577Z,78.03
2024-04-05T04:47:37.618Z,78.61
2024-04-05T04:48:37.596Z,78.99
2024-04-05T04:49:37.598Z,79.17
2024-04-05T04:50:37.616Z,78.89
2024-04-05T04:51:37.619Z,78.99
2024-04-05T04:52:37.626Z,79.36
2024-04-05T04:53:37.633Z,79.46
2024-04-05T04:54:37.643Z,79.36
2024-04-05T04:55:40.636Z,78.99
2024-04-05T04:56:37.662Z,78.99
2024-04-05T04:57:37.666Z,79.27
2024-04-05T04:58:37.726Z,79.08
2024-04-05T04:59:37.686Z,78.99
2024-04-05T05:00:37.769Z,79.17
2024-04-05T05:01:37.703Z,79.46
2024-04-05T05:02:37.714Z,79.46
2024-04-05T05:03:37.716Z,79.74
2024-04-05T05:04:37.729Z,80.03
2024-04-05T05:05:37.735Z,79.74
2024-04-05T05:06:37.747Z,79.94
2024-04-05T05:07:37.759Z,79.65
2024-04-05T05:08:37.774Z,80.13
2024-04-05T05:09:37.772Z,80.13
2024-04-05T05:10:37.778Z,79.36
2024-04-05T05:11:37.804Z,79.46
2024-04-05T05:12:37.819Z,79.27
2024-04-05T05:13:37.802Z,78.32
2024-04-05T05:14:37.827Z,78.89
2024-04-05T05:15:37.833Z,78.99
2024-04-05T05:16:37.831Z,78.03
2024-04-05T05:17:37.835Z,78.23
2024-04-05T05:18:37.851Z,78.23
2024-04-05T05:19:37.847Z,78.03
2024-04-05T05:20:37.887Z,78.23
2024-04-05T05:21:37.869Z,78.51
2024-04-05T05:22:37.879Z,78.89
2024-04-05T05:23:37.881Z,78.70
2024-04-05T05:24:37.920Z,78.70
2024-04-05T05:25:37.909Z,78.32
2024-04-05T05:26:37.932Z,78.51
2024-04-05T05:27:37.925Z,78.23
2024-04-05T05:28:37.965Z,78.61
2024-04-05T05:29:37.932Z,78.03
2024-04-05T05:30:37.975Z,77.94
2024-04-05T05:31:37.952Z,78.03
2024-04-05T05:32:37.963Z,78.23
2024-04-05T05:33:37.967Z,78.32
2024-04-05T05:34:37.977Z,77.56
2024-04-05T05:35:38.003Z,77.66
2024-04-05T05:36:37.995Z,78.13
2024-04-05T05:37:38.014Z,78.23
2024-04-05T05:38:38.014Z,78.03
2024-04-05T05:39:38.019Z,77.37
2024-04-05T05:40:38.030Z,77.56
2024-04-05T05:41:38.037Z,77.66
2024-04-05T05:42:38.063Z,78.23
2024-04-05T05:43:38.103Z,77.41
2024-04-05T05:44:38.066Z,78.17
2024-04-05T05:45:41.741Z,76.84
2024-04-05T05:46:38.079Z,76.46
2024-04-05T05:47:38.115Z,76.08
2024-04-05T05:48:38.096Z,76.56
2024-04-05T05:49:38.106Z,76.37
2024-04-05T05:50:38.119Z,76.46
2024-04-05T05:51:38.119Z,76.18
2024-04-05T05:52:38.132Z,76.46
2024-04-05T05:53:38.140Z,76.27
2024-04-05T05:54:38.146Z,76.65
2024-04-05T05:55:38.165Z,77.12
2024-04-05T05:56:38.168Z,77.22
2024-04-05T05:57:38.171Z,77.12
2024-04-05T05:58:38.186Z,77.70
2024-04-05T05:59:38.208Z,78.08
2024-04-05T06:00:38.301Z,77.89
2024-04-05T06:01:38.207Z,77.03
2024-04-05T06:02:38.300Z,76.56
2024-04-05T06:03:38.239Z,76.84
2024-04-05T06:04:38.295Z,76.84
2024-04-05T06:05:38.288Z,77.03
2024-04-05T06:06:38.256Z,77.22
2024-04-05T06:07:38.269Z,77.12
2024-04-05T06:08:38.304Z,76.84
2024-04-05T06:09:38.283Z,76.84
2024-04-05T06:10:38.306Z,75.89
2024-04-05T06:11:38.291Z,74.27
2024-04-05T06:12:38.314Z,73.33
2024-04-05T06:13:38.328Z,73.14
2024-04-05T06:14:38.323Z,74.08
2024-04-05T06:15:38.354Z,74.85
2024-04-05T06:16:38.344Z,75.70
2024-04-05T06:17:38.340Z,76.18
2024-04-05T06:18:38.361Z,75.99
2024-04-05T06:19:38.365Z,75.79
2024-04-05T06:20:38.382Z,75.42
2024-04-05T06:21:38.381Z,75.23
2024-04-05T06:22:38.399Z,75.04
2024-04-05T06:23:38.399Z,75.23
2024-04-05T06:24:38.440Z,73.99
2024-04-05T06:25:38.419Z,74.22
2024-04-05T06:26:38.428Z,74.75
2024-04-05T06:27:38.433Z,75.23
2024-04-05T06:28:40.846Z,74.22
2024-04-05T06:29:38.459Z,74.31
2024-04-05T06:30:38.476Z,73.93
2024-04-05T06:31:38.480Z,74.03
2024-04-05T06:32:38.480Z,74.22
2024-04-05T06:33:38.492Z,74.51
2024-04-05T06:34:38.522Z,74.41
2024-04-05T06:35:38.505Z,74.31
2024-04-05T06:36:38.526Z,73.55
2024-04-05T06:37:38.543Z,71.94
2024-04-05T06:38:38.535Z,71.56
2024-04-05T06:39:38.543Z,71.37
2024-04-05T06:40:39.757Z,70.99
2024-04-05T06:41:38.569Z,70.70
2024-04-05T06:42:38.577Z,70.23
2024-04-05T06:43:38.578Z,70.45
2024-04-05T06:44:38.592Z,70.74
2024-04-05T06:45:38.628Z,70.83
2024-04-05T06:46:38.608Z,70.83
2024-04-05T06:47:38.638Z,70.36
2024-04-05T06:48:38.629Z,70.45
2024-04-05T06:49:38.652Z,70.17
2024-04-05T06:50:38.654Z,71.12
2024-04-05T06:51:38.662Z,71.31
2024-04-05T06:52:38.668Z,72.92
2024-04-05T06:53:38.678Z,73.11
2024-04-05T06:54:38.691Z,74.39
2024-04-05T06:55:38.690Z,72.49
2024-04-05T06:56:38.704Z,72.86
2024-04-05T06:57:38.711Z,72.67
2024-04-05T06:58:38.725Z,72.30
2024-04-05T06:59:38.732Z,72.67
2024-04-05T07:00:38.747Z,71.82
2024-04-05T07:01:38.768Z,70.39
2024-04-05T07:02:38.766Z,70.01
2024-04-05T07:03:38.796Z,69.73
2024-04-05T07:04:38.781Z,70.68
2024-04-05T07:05:38.784Z,69.82
2024-04-05T07:06:38.800Z,69.25
2024-04-05T07:07:38.807Z,68.68
2024-04-05T07:08:38.822Z,69.15
2024-04-05T07:09:38.824Z,69.73
2024-04-05T07:10:48.294Z,69.15
2024-04-05T07:11:38.842Z,68.62
2024-04-05T07:12:38.860Z,70.62
2024-04-05T07:13:38.871Z,70.81
2024-04-05T07:14:38.935Z,72.14
2024-04-05T07:15:38.892Z,72.62
2024-04-05T07:16:38.898Z,71.28
2024-04-05T07:17:38.947Z,70.43
2024-04-05T07:18:38.918Z,70.52
2024-04-05T07:19:38.950Z,70.05
2024-04-05T07:20:38.940Z,69.57
2024-04-05T07:21:39.044Z,68.24
2024-04-05T07:22:38.954Z,68.62
2024-04-05T07:23:38.960Z,68.81
2024-04-05T07:24:38.973Z,69.19
2024-04-05T07:25:39.025Z,68.62
2024-04-05T07:26:38.993Z,68.15
2024-04-05T07:27:39.001Z,69.29
2024-04-05T07:28:39.017Z,68.81
2024-04-05T07:29:39.024Z,68.43
2024-04-05T07:30:39.044Z,68.62
2024-04-05T07:31:39.049Z,69.10
2024-04-05T07:32:39.052Z,69.48
2024-04-05T07:33:39.066Z,67.86
2024-04-05T07:34:39.069Z,68.24
2024-04-05T07:35:39.090Z,67.76
2024-04-05T07:36:39.097Z,68.37
2024-04-05T07:37:39.106Z,70.47
2024-04-05T07:38:39.112Z,69.89
2024-04-05T07:39:39.123Z,69.79
2024-04-05T07:40:39.125Z,68.65
2024-04-05T07:41:39.141Z,68.65
2024-04-05T07:42:39.148Z,69.23
2024-04-05T07:43:39.160Z,68.65
2024-04-05T07:44:39.172Z,67.89
2024-04-05T07:45:39.179Z,66.08
2024-04-05T07:46:39.187Z,68.50
2024-04-05T07:47:39.234Z,69.83
2024-04-05T07:48:39.220Z,68.78
2024-04-05T07:49:39.221Z,68.69
2024-04-05T07:50:39.227Z,69.26
2024-04-05T07:51:39.268Z,70.69
2024-04-05T07:52:39.248Z,72.50
2024-04-05T07:53:39.270Z,71.93
2024-04-05T07:54:39.272Z,70.21
2024-04-05T07:55:39.288Z,71.26
2024-04-05T07:56:39.289Z,70.69
2024-04-05T07:57:39.302Z,68.02
2024-04-05T07:58:39.313Z,67.93
2024-04-05T07:59:39.329Z,68.02
2024-04-05T08:00:39.379Z,67.93
2024-04-05T08:01:39.340Z,68.88
2024-04-05T08:02:39.352Z,66.69
2024-04-05T08:03:39.365Z,67.35
2024-04-05T08:04:39.385Z,68.30
2024-04-05T08:05:39.385Z,68.30
2024-04-05T08:06:39.403Z,66.50
2024-04-05T08:07:39.418Z,66.78
2024-04-05T08:08:39.415Z,68.50
2024-04-05T08:09:39.428Z,70.40
2024-04-05T08:10:39.448Z,69.74
2024-04-05T08:11:39.446Z,70.69
2024-04-05T08:12:39.473Z,72.44
2024-04-05T08:13:39.470Z,71.30
2024-04-05T08:14:39.477Z,71.11
2024-04-05T08:15:39.502Z,68.63
2024-04-05T08:16:39.504Z,69.77
2024-04-05T08:17:39.513Z,69.48
2024-04-05T08:18:39.535Z,69.96
2024-04-05T08:19:39.535Z,70.86
2024-04-05T08:20:39.542Z,68.44
2024-04-05T08:21:39.555Z,68.72
2024-04-05T08:22:39.561Z,68.63
2024-04-05T08:23:39.610Z,68.91
2024-04-05T08:24:39.584Z,66.82
2024-04-05T08:25:39.630Z,65.48
2024-04-05T08:26:39.616Z,65.29
2024-04-05T08:27:39.619Z,65.48
2024-04-05T08:28:39.628Z,65.96
2024-04-05T08:29:39.639Z,66.59
2024-04-05T08:30:39.683Z,66.63
2024-04-05T08:31:39.661Z,65.45
2024-04-05T08:32:39.665Z,66.59
2024-04-05T08:33:39.683Z,68.72
2024-04-05T08:34:39.694Z,68.82
2024-04-05T08:35:39.714Z,68.05
2024-04-05T08:36:39.763Z,68.82
2024-04-05T08:37:39.728Z,67.77
2024-04-05T08:38:39.736Z,67.14
2024-04-05T08:39:39.759Z,66.85
2024-04-05T08:40:39.767Z,68.57
2024-04-05T08:41:39.772Z,66.85
2024-04-05T08:42:42.501Z,66.75
2024-04-05T08:43:39.818Z,66.66
2024-04-05T08:44:39.804Z,69.52
2024-04-05T08:45:39.818Z,68.66
2024-04-05T08:46:39.820Z,66.56
2024-04-05T08:47:39.840Z,67.07
2024-04-05T08:48:39.845Z,66.12
2024-04-05T08:49:39.854Z,65.04
2024-04-05T08:50:39.873Z,66.18
2024-04-05T08:51:39.887Z,68.03
2024-04-05T08:52:39.889Z,62.75
2024-04-05T08:53:39.904Z,62.37
2024-04-05T08:54:39.915Z,64.85
2024-04-05T08:55:39.940Z,63.80
2024-04-05T08:56:39.939Z,65.42
2024-04-05T08:57:39.949Z,63.99
2024-04-05T08:58:39.958Z,63.04
2024-04-05T08:59:39.985Z,64.09
2024-04-05T09:00:39.985Z,64.09
2024-04-05T09:01:40.005Z,64.37
2024-04-05T09:02:40.010Z,64.59
2024-04-05T09:03:40.018Z,65.07
2024-04-05T09:04:40.024Z,63.92
2024-04-05T09:05:40.086Z,62.37
2024-04-05T09:06:40.051Z,63.26
2024-04-05T09:07:40.060Z,64.40
2024-04-05T09:08:40.071Z,62.84
2024-04-05T09:09:45.786Z,63.32
2024-04-05T09:10:40.116Z,64.31
2024-04-05T09:11:40.120Z,64.59
2024-04-05T09:12:40.122Z,63.07
2024-04-05T09:13:40.157Z,63.26
2024-04-05T09:14:40.144Z,61.54
2024-04-05T09:15:40.157Z,63.86
2024-04-05T09:16:40.168Z,63.39
2024-04-05T09:17:40.207Z,64.53
2024-04-05T09:18:40.190Z,63.86
2024-04-05T09:19:40.202Z,62.15
2024-04-05T09:20:40.211Z,61.66
2024-04-05T09:21:40.335Z,62.81
2024-04-05T09:22:40.238Z,62.30
2024-04-05T09:23:40.254Z,61.95
2024-04-05T09:24:40.263Z,61.07
2024-04-05T09:25:40.274Z,62.21
2024-04-05T09:26:40.294Z,61.63
2024-04-05T09:27:40.316Z,60.68
2024-04-05T09:28:40.311Z,60.27
2024-04-05T09:29:40.323Z,62.40
2024-04-05T09:30:40.336Z,62.78
2024-04-05T09:31:40.350Z,62.11
2024-04-05T09:32:40.388Z,60.58
2024-04-05T09:33:40.479Z,62.52
2024-04-05T09:34:40.397Z,62.94
2024-04-05T09:35:40.395Z,61.98
2024-04-05T09:36:40.405Z,59.31
2024-04-05T09:37:40.425Z,56.63
2024-04-05T09:38:40.429Z,57.87
2024-04-05T09:39:40.443Z,58.54
2024-04-05T09:40:40.454Z,59.50
2024-04-05T09:41:40.469Z,57.50
2024-04-05T09:42:40.492Z,58.64
2024-04-05T09:43:57.629Z,57.37
2024-04-05T09:44:40.503Z,59.76
2024-04-05T09:45:40.517Z,59.56
2024-04-05T09:46:40.528Z,61.89
2024-04-05T09:47:40.541Z,61.63
2024-04-05T09:48:40.561Z,60.84
2024-04-05T09:49:40.584Z,59.98
2024-04-05T09:50:40.577Z,62.30
2024-04-05T09:51:40.589Z,59.98
2024-04-05T09:52:40.602Z,59.31
2024-04-05T09:53:40.618Z,60.07
2024-04-05T09:54:40.626Z,60.17
2024-04-05T09:55:40.639Z,61.22
2024-04-05T09:56:40.656Z,59.88
2024-04-05T09:57:40.668Z,61.82
2024-04-05T09:58:40.680Z,61.06
2024-04-05T09:59:40.747Z,59.63
2024-04-05T10:00:40.741Z,60.80
2024-04-05T10:01:40.717Z,59.44
2024-04-05T10:02:40.726Z,60.01
2024-04-05T10:03:40.741Z,57.90
2024-04-05T10:04:40.755Z,58.10
2024-04-05T10:05:40.770Z,59.72
2024-04-05T10:06:40.784Z,58.16
2024-04-05T10:07:40.791Z,57.40
2024-04-05T10:08:40.823Z,58.48
2024-04-05T10:09:40.825Z,59.91
2024-04-05T10:10:40.843Z,59.75
2024-04-05T10:11:40.851Z,59.66
2024-04-05T10:12:41.144Z,61.51
2024-04-05T10:13:40.881Z,59.62
2024-04-05T10:14:40.881Z,58.66
2024-04-05T10:15:40.914Z,56.68
2024-04-05T10:16:40.961Z,57.16
2024-04-05T10:17:40.927Z,56.97
2024-04-05T10:18:40.938Z,58.69
2024-04-05T10:19:40.960Z,58.31
2024-04-05T10:20:40.963Z,55.91
2024-04-05T10:21:40.979Z,57.54
2024-04-05T10:22:40.995Z,55.91
2024-04-05T10:23:41.008Z,54.83
2024-04-05T10:24:41.023Z,53.78
2024-04-05T10:25:41.037Z,55.96
2024-04-05T10:26:41.057Z,57.20
2024-04-05T10:27:41.066Z,56.94
2024-04-05T10:28:41.101Z,57.04
2024-04-05T10:29:41.509Z,55.67
2024-04-05T10:30:41.165Z,57.70
2024-04-05T10:31:41.202Z,62.52
2024-04-05T10:32:41.204Z,56.94
2024-04-05T10:33:41.148Z,57.51
2024-04-05T10:34:41.217Z,59.65
2024-04-05T10:35:41.226Z,56.68
2024-04-05T10:36:41.201Z,56.56
2024-04-05T10:37:41.242Z,59.23
2024-04-05T10:38:46.697Z,58.54
2024-04-05T10:39:41.238Z,61.15
2024-04-05T10:40:41.245Z,58.86
2024-04-05T10:41:41.261Z,58.18
2024-04-05T10:42:41.271Z,58.18
2024-04-05T10:43:41.292Z,60.00
2024-04-05T10:44:41.303Z,61.94
2024-04-05T10:45:41.336Z,59.65
2024-04-05T10:46:41.331Z,60.32
2024-04-05T10:47:41.363Z,60.89
2024-04-05T10:48:41.360Z,59.65
2024-04-05T10:49:41.379Z,57.61
2024-04-05T10:50:41.419Z,58.66
2024-04-05T10:51:41.422Z,56.75
2024-04-05T10:52:41.418Z,58.56
2024-04-05T10:53:41.434Z,60.00
2024-04-05T10:54:41.448Z,60.10
2024-04-05T10:55:41.461Z,60.77
2024-04-05T10:56:41.580Z,60.22
2024-04-05T10:57:41.573Z,57.92
2024-04-05T10:58:41.535Z,55.73
2024-04-05T10:59:41.575Z,57.23
2024-04-05T11:00:41.551Z,56.77
2024-04-05T11:01:41.549Z,58.53
2024-04-05T11:02:41.564Z,59.58
2024-04-05T11:03:41.722Z,59.01
2024-04-05T11:04:41.822Z,58.81
2024-04-05T11:05:41.693Z,55.94
2024-04-05T11:06:41.641Z,54.77
2024-04-05T11:07:41.704Z,58.24
2024-04-05T11:08:41.712Z,57.28
2024-04-05T11:09:41.669Z,57.28
2024-04-05T11:10:41.676Z,56.42
2024-04-05T11:11:41.708Z,56.52
2024-04-05T11:12:41.722Z,55.85
2024-04-05T11:13:41.739Z,55.40
2024-04-05T11:14:41.766Z,56.35
2024-04-05T11:15:41.760Z,56.09
2024-04-05T11:16:41.776Z,56.57
2024-04-05T11:17:41.788Z,56.45
2024-04-05T11:18:41.804Z,55.01
2024-04-05T11:19:41.830Z,53.96
2024-04-05T11:20:41.859Z,54.22
2024-04-05T11:21:41.850Z,54.50
2024-04-05T11:22:41.862Z,54.50
2024-04-05T11:23:41.878Z,55.85
2024-04-05T11:24:41.899Z,55.27
2024-04-05T11:25:41.923Z,54.89
2024-04-05T11:26:41.931Z,57.03
2024-04-05T11:27:41.947Z,53.86
2024-04-05T11:28:41.958Z,54.03
2024-04-05T11:29:41.994Z,53.45
2024-04-05T11:30:41.987Z,57.60
2024-04-05T11:31:42.003Z,57.06
2024-04-05T11:32:42.015Z,54.34
2024-04-05T11:33:42.036Z,52.75
2024-04-05T11:34:42.048Z,55.75
2024-04-05T11:35:42.082Z,56.39
2024-04-05T11:36:42.079Z,54.55
2024-04-05T11:37:42.098Z,56.39
2024-04-05T11:38:42.114Z,55.91
2024-04-05T11:39:42.129Z,55.41
2024-04-05T11:40:42.147Z,56.15
2024-04-05T11:41:42.166Z,56.53
2024-04-05T11:42:42.184Z,56.88
2024-04-05T11:43:42.196Z,57.68
2024-04-05T11:44:42.211Z,57.77
2024-04-05T11:45:42.232Z,58.83
2024-04-05T11:46:42.251Z,59.72
2024-04-05T11:47:42.249Z,58.09
2024-04-05T11:48:42.270Z,57.35
2024-04-05T11:49:42.280Z,60.13
2024-04-05T11:50:42.297Z,58.40
2024-04-05T11:51:42.326Z,57.26
2024-04-05T11:52:42.327Z,58.59
2024-04-05T11:53:42.341Z,56.10
2024-04-05T11:54:42.359Z,60.16
2024-04-05T11:55:42.372Z,58.81
2024-04-05T11:56:42.396Z,60.38
2024-04-05T11:57:42.415Z,58.20
2024-04-05T11:58:42.440Z,56.70
2024-04-05T11:59:42.439Z,54.68
2024-04-05T12:00:42.458Z,59.03
2024-04-05T12:01:42.466Z,54.90
2024-04-05T12:02:42.483Z,57.52
2024-04-05T12:03:42.500Z,53.30
2024-04-05T12:04:42.514Z,52.98
2024-04-05T12:05:42.528Z,52.45
2024-04-05T12:06:42.544Z,53.41
2024-04-05T12:07:42.574Z,53.67
2024-04-05T12:08:42.577Z,56.86
2024-04-05T12:09:42.595Z,52.42
2024-04-05T12:10:42.622Z,54.27
2024-04-05T12:11:42.625Z,56.22
2024-04-05T12:12:42.642Z,56.31
2024-04-05T12:13:42.655Z,56.63
2024-04-05T12:14:42.677Z,54.30
2024-04-05T12:15:42.687Z,53.99
2024-04-05T12:16:42.709Z,52.74
2024-04-05T12:17:42.724Z,53.12
2024-04-05T12:18:42.742Z,58.42
2024-04-05T12:19:42.754Z,59.51
2024-04-05T12:20:42.789Z,54.74
2024-04-05T12:21:42.786Z,49.77
2024-04-05T12:22:42.806Z,50.37
2024-04-05T12:23:42.830Z,51.76
2024-04-05T12:24:42.845Z,52.05
2024-04-05T12:25:42.857Z,52.43
2024-04-05T12:26:42.871Z,53.23
2024-04-05T12:27:42.883Z,51.18
2024-04-05T12:28:42.901Z,51.57
2024-04-05T12:29:42.918Z,51.64
2024-04-05T12:30:42.941Z,53.11
2024-04-05T12:31:42.952Z,50.49
2024-04-05T12:32:42.981Z,50.94
2024-04-05T12:33:42.987Z,51.51
2024-04-05T12:34:43.016Z,54.80
2024-04-05T12:35:43.045Z,53.49
2024-04-05T12:36:43.043Z,51.83
2024-04-05T12:37:43.054Z,51.49
2024-04-05T12:38:45.011Z,52.93
2024-04-05T12:39:43.113Z,53.82
2024-04-05T12:40:43.119Z,52.67
2024-04-05T12:41:43.146Z,53.15
2024-04-05T12:42:43.165Z,52.09
2024-04-05T12:43:43.168Z,51.30
2024-04-05T12:44:43.190Z,52.45
2024-04-05T12:45:43.191Z,52.57
2024-04-05T12:46:43.213Z,53.44
2024-04-05T12:47:43.223Z,53.36
2024-04-05T12:48:43.242Z,52.12
2024-04-05T12:49:43.259Z,49.69
2024-04-05T12:50:43.277Z,52.79
2024-04-05T12:51:43.292Z,52.91
2024-04-05T12:52:43.315Z,49.33